sensor_id;sensor_type;location;lat;lon;timestamp;pressure;altitude;pressure_sealevel;temperature;humidity
57192;BME280;43052;52.588;13.396;2022-09-29T00:01:43;99570.13;;;9.36;72.74
57192;BME280;43052;52.588;13.396;2022-09-29T00:04:08;99565.03;;;9.29;72.45
57192;BME280;43052;52.588;13.396;2022-09-29T00:06:33;99560.91;;;9.17;72.74
57192;BME280;43052;52.588;13.396;2022-09-29T00:08:59;99565.34;;;9.13;72.92
57192;BME280;43052;52.588;13.396;2022-09-29T00:11:24;99567.31;;;9.00;72.88
57192;BME280;43052;52.588;13.396;2022-09-29T00:13:49;99563.16;;;8.90;72.98
57192;BME280;43052;52.588;13.396;2022-09-29T00:16:15;99567.66;;;8.80;73.39
57192;BME280;43052;52.588;13.396;2022-09-29T00:18:40;99573.03;;;8.71;73.59
57192;BME280;43052;52.588;13.396;2022-09-29T00:21:12;99560.22;;;8.57;73.75
57192;BME280;43052;52.588;13.396;2022-09-29T00:23:38;99576.72;;;8.59;73.84
57192;BME280;43052;52.588;13.396;2022-09-29T00:26:05;99578.41;;;8.60;74.03
57192;BME280;43052;52.588;13.396;2022-09-29T00:28:31;99568.91;;;8.59;74.11
57192;BME280;43052;52.588;13.396;2022-09-29T00:30:59;99573.16;;;8.63;74.23
57192;BME280;43052;52.588;13.396;2022-09-29T00:33:27;99573.13;;;8.66;74.19
57192;BME280;43052;52.588;13.396;2022-09-29T00:36:01;99573.97;;;8.67;74.43
57192;BME280;43052;52.588;13.396;2022-09-29T00:38:27;99573.19;;;8.61;74.79
57192;BME280;43052;52.588;13.396;2022-09-29T00:40:53;99573.31;;;8.54;74.77
57192;BME280;43052;52.588;13.396;2022-09-29T00:43:44;99573.38;;;8.49;74.97
57192;BME280;43052;52.588;13.396;2022-09-29T00:46:09;99574.31;;;8.42;74.94
57192;BME280;43052;52.588;13.396;2022-09-29T00:48:35;99570.97;;;8.34;74.79
57192;BME280;43052;52.588;13.396;2022-09-29T00:51:00;99575.44;;;8.25;74.94
57192;BME280;43052;52.588;13.396;2022-09-29T00:53:26;99580.78;;;8.16;75.42
57192;BME280;43052;52.588;13.396;2022-09-29T00:55:56;99570.53;;;8.05;75.54
57192;BME280;43052;52.588;13.396;2022-09-29T00:58:47;99573.25;;;7.94;75.88
57192;BME280;43052;52.588;13.396;2022-09-29T01:01:19;99574.25;;;7.87;75.93
57192;BME280;43052;52.588;13.396;2022-09-29T01:03:46;99576.09;;;7.79;76.03
57192;BME280;43052;52.588;13.396;2022-09-29T01:06:16;99574.44;;;7.72;76.52
57192;BME280;43052;52.588;13.396;2022-09-29T01:08:52;99573.66;;;7.66;76.52
57192;BME280;43052;52.588;13.396;2022-09-29T01:11:22;99584.94;;;7.65;76.31
57192;BME280;43052;52.588;13.396;2022-09-29T01:13:48;99572.91;;;7.55;76.20
57192;BME280;43052;52.588;13.396;2022-09-29T01:16:13;99573.75;;;7.56;76.20
57192;BME280;43052;52.588;13.396;2022-09-29T01:18:39;99585.06;;;7.56;76.34
57192;BME280;43052;52.588;13.396;2022-09-29T01:24:03;99586.81;;;7.51;76.73
57192;BME280;43052;52.588;13.396;2022-09-29T01:29:33;99585.19;;;7.44;76.75
57192;BME280;43052;52.588;13.396;2022-09-29T01:32:18;99599.78;;;7.57;76.58
57192;BME280;43052;52.588;13.396;2022-09-29T01:34:53;99597.97;;;7.62;76.64
57192;BME280;43052;52.588;13.396;2022-09-29T01:37:52;99605.72;;;7.67;76.57
57192;BME280;43052;52.588;13.396;2022-09-29T01:41:13;99603.97;;;7.67;76.45
57192;BME280;43052;52.588;13.396;2022-09-29T01:43:49;99604.91;;;7.63;76.62
57192;BME280;43052;52.588;13.396;2022-09-29T01:46:22;99601.38;;;7.67;76.71
57192;BME280;43052;52.588;13.396;2022-09-29T01:48:51;99609.88;;;7.80;76.61
57192;BME280;43052;52.588;13.396;2022-09-29T01:51:22;99596.13;;;7.74;76.27
57192;BME280;43052;52.588;13.396;2022-09-29T01:53:51;99612.44;;;7.87;76.45
57192;BME280;43052;52.588;13.396;2022-09-29T01:56:24;99613.34;;;7.82;76.64
57192;BME280;43052;52.588;13.396;2022-09-29T01:59:07;99615.97;;;7.81;76.91
57192;BME280;43052;52.588;13.396;2022-09-29T02:01:37;99609.94;;;7.77;77.08
57192;BME280;43052;52.588;13.396;2022-09-29T02:04:15;99601.34;;;7.71;76.92
57192;BME280;43052;52.588;13.396;2022-09-29T02:06:48;99606.50;;;7.75;77.01
57192;BME280;43052;52.588;13.396;2022-09-29T02:09:19;99619.38;;;7.86;76.73
57192;BME280;43052;52.588;13.396;2022-09-29T02:11:49;99604.66;;;7.83;76.90
57192;BME280;43052;52.588;13.396;2022-09-29T02:14:21;99618.44;;;7.92;76.85
57192;BME280;43052;52.588;13.396;2022-09-29T02:16:54;99616.72;;;7.89;76.79
57192;BME280;43052;52.588;13.396;2022-09-29T02:19:28;99627.88;;;8.00;76.86
57192;BME280;43052;52.588;13.396;2022-09-29T02:21:56;99623.50;;;8.04;76.96
57192;BME280;43052;52.588;13.396;2022-09-29T02:24:22;99615.69;;;8.04;76.67
57192;BME280;43052;52.588;13.396;2022-09-29T02:26:48;99627.75;;;8.08;76.79
57192;BME280;43052;52.588;13.396;2022-09-29T02:29:14;99628.59;;;8.10;76.78
57192;BME280;43052;52.588;13.396;2022-09-29T02:31:40;99625.09;;;8.14;76.59
57192;BME280;43052;52.588;13.396;2022-09-29T02:34:07;99618.16;;;8.13;76.75
57192;BME280;43052;52.588;13.396;2022-09-29T02:37:53;99629.31;;;8.23;76.67
57192;BME280;43052;52.588;13.396;2022-09-29T02:42:35;99637.09;;;8.25;77.02
57192;BME280;43052;52.588;13.396;2022-09-29T02:48:06;99634.22;;;8.45;76.80
57192;BME280;43052;52.588;13.396;2022-09-29T02:50:55;99634.97;;;8.55;76.92
57192;BME280;43052;52.588;13.396;2022-09-29T02:58:56;99633.78;;;8.74;76.60
57192;BME280;43052;52.588;13.396;2022-09-29T03:01:23;99636.34;;;8.77;76.35
57192;BME280;43052;52.588;13.396;2022-09-29T03:03:48;99633.69;;;8.81;76.24
57192;BME280;43052;52.588;13.396;2022-09-29T03:06:14;99634.53;;;8.83;76.19
57192;BME280;43052;52.588;13.396;2022-09-29T03:08:40;99644.00;;;8.88;76.20
57192;BME280;43052;52.588;13.396;2022-09-29T03:11:05;99638.75;;;8.90;76.36
57192;BME280;43052;52.588;13.396;2022-09-29T03:13:30;99643.84;;;8.96;76.04
57192;BME280;43052;52.588;13.396;2022-09-29T03:15:56;99645.56;;;8.99;76.02
57192;BME280;43052;52.588;13.396;2022-09-29T03:18:21;99647.25;;;9.01;76.46
57192;BME280;43052;52.588;13.396;2022-09-29T03:20:48;99651.53;;;9.07;76.05
57192;BME280;43052;52.588;13.396;2022-09-29T03:23:13;99641.91;;;9.11;75.91
57192;BME280;43052;52.588;13.396;2022-09-29T03:25:38;99646.97;;;9.18;76.12
57192;BME280;43052;52.588;13.396;2022-09-29T03:28:03;99642.69;;;9.14;76.03
57192;BME280;43052;52.588;13.396;2022-09-29T03:30:28;99635.72;;;9.15;75.87
57192;BME280;43052;52.588;13.396;2022-09-29T03:32:54;99643.38;;;9.25;76.13
57192;BME280;43052;52.588;13.396;2022-09-29T03:35:19;99637.25;;;9.27;75.97
57192;BME280;43052;52.588;13.396;2022-09-29T03:37:45;99632.09;;;9.23;75.82
57192;BME280;43052;52.588;13.396;2022-09-29T03:40:10;99646.72;;;9.34;75.83
57192;BME280;43052;52.588;13.396;2022-09-29T03:42:36;99647.59;;;9.33;75.69
57192;BME280;43052;52.588;13.396;2022-09-29T03:45:01;99646.75;;;9.31;75.94
57192;BME280;43052;52.588;13.396;2022-09-29T03:47:26;99653.69;;;9.30;76.06
57192;BME280;43052;52.588;13.396;2022-09-29T03:49:51;99652.81;;;9.33;75.90
57192;BME280;43052;52.588;13.396;2022-09-29T03:52:17;99652.81;;;9.33;75.95
57192;BME280;43052;52.588;13.396;2022-09-29T03:54:43;99660.56;;;9.37;76.04
57192;BME280;43052;52.588;13.396;2022-09-29T03:57:08;99661.34;;;9.39;76.07
57192;BME280;43052;52.588;13.396;2022-09-29T03:59:33;99659.59;;;9.41;75.98
57192;BME280;43052;52.588;13.396;2022-09-29T04:01:58;99662.13;;;9.46;75.93
57192;BME280;43052;52.588;13.396;2022-09-29T04:04:24;99672.53;;;9.48;75.82
57192;BME280;43052;52.588;13.396;2022-09-29T04:06:49;99665.59;;;9.47;76.01
57192;BME280;43052;52.588;13.396;2022-09-29T04:09:14;99667.28;;;9.49;75.88
57192;BME280;43052;52.588;13.396;2022-09-29T04:11:39;99672.47;;;9.51;76.13
57192;BME280;43052;52.588;13.396;2022-09-29T04:14:05;99662.16;;;9.45;75.97
57192;BME280;43052;52.588;13.396;2022-09-29T04:16:30;99674.19;;;9.52;76.16
57192;BME280;43052;52.588;13.396;2022-09-29T04:18:55;99668.09;;;9.53;76.15
57192;BME280;43052;52.588;13.396;2022-09-29T04:21:21;99661.22;;;9.47;75.81
57192;BME280;43052;52.588;13.396;2022-09-29T04:23:46;99679.38;;;9.55;76.17
57192;BME280;43052;52.588;13.396;2022-09-29T04:26:12;99672.44;;;9.54;76.00
57192;BME280;43052;52.588;13.396;2022-09-29T04:28:38;99673.19;;;9.61;75.86
57192;BME280;43052;52.588;13.396;2022-09-29T04:31:04;99663.72;;;9.53;75.77
57192;BME280;43052;52.588;13.396;2022-09-29T04:33:30;99685.31;;;9.62;75.65
57192;BME280;43052;52.588;13.396;2022-09-29T04:35:57;99671.47;;;9.60;75.70
57192;BME280;43052;52.588;13.396;2022-09-29T04:38:22;99676.69;;;9.58;75.58
57192;BME280;43052;52.588;13.396;2022-09-29T04:40:48;99683.66;;;9.57;75.60
57192;BME280;43052;52.588;13.396;2022-09-29T04:43:13;99687.06;;;9.61;75.67
57192;BME280;43052;52.588;13.396;2022-09-29T04:45:38;99673.28;;;9.54;75.43
57192;BME280;43052;52.588;13.396;2022-09-29T04:48:04;99683.63;;;9.59;75.61
57192;BME280;43052;52.588;13.396;2022-09-29T04:50:29;99687.88;;;9.65;75.70
57192;BME280;43052;52.588;13.396;2022-09-29T04:52:55;99691.50;;;9.57;75.59
57192;BME280;43052;52.588;13.396;2022-09-29T04:55:20;99687.25;;;9.52;75.78
57192;BME280;43052;52.588;13.396;2022-09-29T04:57:45;99703.56;;;9.63;75.69
57192;BME280;43052;52.588;13.396;2022-09-29T05:00:12;99702.69;;;9.63;75.54
57192;BME280;43052;52.588;13.396;2022-09-29T05:02:38;99701.00;;;9.60;75.66
57192;BME280;43052;52.588;13.396;2022-09-29T05:05:04;99707.00;;;9.65;75.44
57192;BME280;43052;52.588;13.396;2022-09-29T05:07:36;99710.53;;;9.64;75.40
57192;BME280;43052;52.588;13.396;2022-09-29T05:10:02;99709.59;;;9.67;75.32
57192;BME280;43052;52.588;13.396;2022-09-29T05:12:27;99708.69;;;9.69;75.34
57192;BME280;43052;52.588;13.396;2022-09-29T05:14:52;99712.22;;;9.65;75.30
57192;BME280;43052;52.588;13.396;2022-09-29T05:17:18;99705.31;;;9.64;75.64
57192;BME280;43052;52.588;13.396;2022-09-29T05:19:43;99700.09;;;9.64;75.62
57192;BME280;43052;52.588;13.396;2022-09-29T05:22:08;99711.19;;;9.74;75.47
57192;BME280;43052;52.588;13.396;2022-09-29T05:24:33;99711.16;;;9.76;75.28
57192;BME280;43052;52.588;13.396;2022-09-29T05:26:59;99713.69;;;9.82;75.17
57192;BME280;43052;52.588;13.396;2022-09-29T05:29:24;99719.78;;;9.81;75.17
57192;BME280;43052;52.588;13.396;2022-09-29T05:31:49;99725.84;;;9.81;75.31
57192;BME280;43052;52.588;13.396;2022-09-29T05:34:15;99706.03;;;9.72;75.21
57192;BME280;43052;52.588;13.396;2022-09-29T05:36:40;99719.66;;;9.87;75.23
57192;BME280;43052;52.588;13.396;2022-09-29T05:39:06;99726.56;;;9.91;74.96
57192;BME280;43052;52.588;13.396;2022-09-29T05:41:32;99722.22;;;9.90;75.03
57192;BME280;43052;52.588;13.396;2022-09-29T05:43:57;99716.91;;;9.93;74.78
57192;BME280;43052;52.588;13.396;2022-09-29T05:46:25;99719.47;;;9.96;74.67
57192;BME280;43052;52.588;13.396;2022-09-29T05:48:50;99715.06;;;10.00;74.74
57192;BME280;43052;52.588;13.396;2022-09-29T05:51:18;99719.34;;;10.02;74.85
57192;BME280;43052;52.588;13.396;2022-09-29T05:53:45;99711.50;;;10.04;74.79
57192;BME280;43052;52.588;13.396;2022-09-29T05:56:13;99715.66;;;10.13;74.45
57192;BME280;43052;52.588;13.396;2022-09-29T05:58:39;99711.28;;;10.15;74.38
57192;BME280;43052;52.588;13.396;2022-09-29T06:01:06;99723.28;;;10.24;74.33
57192;BME280;43052;52.588;13.396;2022-09-29T06:03:34;99725.84;;;10.27;74.36
57192;BME280;43052;52.588;13.396;2022-09-29T06:06:07;99728.41;;;10.28;74.53
57192;BME280;43052;52.588;13.396;2022-09-29T06:08:33;99729.19;;;10.33;74.27
57192;BME280;43052;52.588;13.396;2022-09-29T06:11:06;99728.25;;;10.38;73.96
57192;BME280;43052;52.588;13.396;2022-09-29T06:13:31;99727.38;;;10.39;74.26
57192;BME280;43052;52.588;13.396;2022-09-29T06:15:58;99729.78;;;10.48;74.07
57192;BME280;43052;52.588;13.396;2022-09-29T06:18:23;99731.38;;;10.55;74.00
57192;BME280;43052;52.588;13.396;2022-09-29T06:20:48;99733.09;;;10.56;73.56
57192;BME280;43052;52.588;13.396;2022-09-29T06:23:14;99735.69;;;10.58;73.89
57192;BME280;43052;52.588;13.396;2022-09-29T06:25:39;99737.28;;;10.65;73.48
57192;BME280;43052;52.588;13.396;2022-09-29T06:28:04;99738.84;;;10.72;73.29
57192;BME280;43052;52.588;13.396;2022-09-29T06:30:29;99737.81;;;10.79;73.30
57192;BME280;43052;52.588;13.396;2022-09-29T06:32:55;99734.16;;;10.87;73.21
57192;BME280;43052;52.588;13.396;2022-09-29T06:35:20;99739.28;;;10.91;72.81
57192;BME280;43052;52.588;13.396;2022-09-29T06:38:04;99741.00;;;10.92;72.62
57192;BME280;43052;52.588;13.396;2022-09-29T06:40:29;99741.78;;;10.96;72.74
57192;BME280;43052;52.588;13.396;2022-09-29T06:42:54;99736.41;;;11.02;72.38
57192;BME280;43052;52.588;13.396;2022-09-29T06:45:20;99745.13;;;11.03;72.20
57192;BME280;43052;52.588;13.396;2022-09-29T06:47:45;99734.72;;;11.01;72.50
57192;BME280;43052;52.588;13.396;2022-09-29T06:50:10;99734.50;;;11.10;72.47
57192;BME280;43052;52.588;13.396;2022-09-29T06:52:35;99733.47;;;11.16;72.20
57192;BME280;43052;52.588;13.396;2022-09-29T06:55:01;99741.13;;;11.24;72.01
57192;BME280;43052;52.588;13.396;2022-09-29T06:57:26;99733.09;;;11.32;71.83
57192;BME280;43052;52.588;13.396;2022-09-29T07:03:10;99742.19;;;11.51;71.43
57192;BME280;43052;52.588;13.396;2022-09-29T07:05:35;99745.47;;;11.59;70.80
57192;BME280;43052;52.588;13.396;2022-09-29T07:08:00;99733.31;;;11.58;70.99
57192;BME280;43052;52.588;13.396;2022-09-29T07:10:28;99746.00;;;11.72;70.56
57192;BME280;43052;52.588;13.396;2022-09-29T07:12:53;99749.25;;;11.82;70.39
57192;BME280;43052;52.588;13.396;2022-09-29T07:15:19;99749.97;;;11.87;70.31
57192;BME280;43052;52.588;13.396;2022-09-29T07:17:44;99756.00;;;11.91;69.94
57192;BME280;43052;52.588;13.396;2022-09-29T07:20:10;99764.69;;;11.93;69.88
57192;BME280;43052;52.588;13.396;2022-09-29T07:22:35;99754.94;;;12.00;69.92
57192;BME280;43052;52.588;13.396;2022-09-29T07:25:00;99754.72;;;12.07;69.33
57192;BME280;43052;52.588;13.396;2022-09-29T07:27:26;99753.53;;;12.18;69.01
57192;BME280;43052;52.588;13.396;2022-09-29T07:29:52;99741.53;;;12.11;68.59
57192;BME280;43052;52.588;13.396;2022-09-29T07:32:18;99762.03;;;12.26;68.63
57192;BME280;43052;52.588;13.396;2022-09-29T07:34:44;99767.22;;;12.29;68.72
57192;BME280;43052;52.588;13.396;2022-09-29T07:37:10;99763.75;;;12.29;68.40
57192;BME280;43052;52.588;13.396;2022-09-29T07:39:35;99768.94;;;12.30;67.99
57192;BME280;43052;52.588;13.396;2022-09-29T07:42:00;99777.44;;;12.38;67.84
57192;BME280;43052;52.588;13.396;2022-09-29T07:44:27;99772.84;;;12.47;67.81
57192;BME280;43052;52.588;13.396;2022-09-29T07:46:54;99770.91;;;12.53;67.51
57192;BME280;43052;52.588;13.396;2022-09-29T07:49:19;99774.06;;;12.65;67.41
57192;BME280;43052;52.588;13.396;2022-09-29T07:51:44;99782.38;;;12.79;67.18
57192;BME280;43052;52.588;13.396;2022-09-29T07:54:10;99785.69;;;12.86;66.81
57192;BME280;43052;52.588;13.396;2022-09-29T07:56:35;99792.34;;;12.96;66.63
57192;BME280;43052;52.588;13.396;2022-09-29T07:59:00;99789.44;;;13.06;66.36
57192;BME280;43052;52.588;13.396;2022-09-29T08:01:27;99785.75;;;13.11;65.01
57192;BME280;43052;52.588;13.396;2022-09-29T08:03:54;99803.00;;;13.20;65.28
57192;BME280;43052;52.588;13.396;2022-09-29T08:06:21;99791.28;;;13.30;64.99
57192;BME280;43052;52.588;13.396;2022-09-29T08:08:47;99793.72;;;13.37;64.68
57192;BME280;43052;52.588;13.396;2022-09-29T08:11:14;99797.59;;;13.53;64.62
57192;BME280;43052;52.588;13.396;2022-09-29T08:13:40;99796.22;;;13.68;64.39
57192;BME280;43052;52.588;13.396;2022-09-29T08:16:07;99800.94;;;13.84;64.26
57192;BME280;43052;52.588;13.396;2022-09-29T08:18:34;99801.47;;;13.93;63.97
57192;BME280;43052;52.588;13.396;2022-09-29T08:21:00;99805.66;;;13.99;63.63
57192;BME280;43052;52.588;13.396;2022-09-29T08:23:26;99808.84;;;14.09;63.02
57192;BME280;43052;52.588;13.396;2022-09-29T08:26:03;99812.00;;;14.19;63.02
57192;BME280;43052;52.588;13.396;2022-09-29T08:28:30;99818.81;;;14.24;62.62
57192;BME280;43052;52.588;13.396;2022-09-29T08:30:55;99813.56;;;14.24;61.59
57192;BME280;43052;52.588;13.396;2022-09-29T08:33:21;99818.09;;;14.45;61.46
57192;BME280;43052;52.588;13.396;2022-09-29T08:35:54;99815.47;;;14.68;61.26
57192;BME280;43052;52.588;13.396;2022-09-29T08:38:19;99809.47;;;14.88;60.36
57192;BME280;43052;52.588;13.396;2022-09-29T08:40:45;99800.53;;;15.15;60.09
57192;BME280;43052;52.588;13.396;2022-09-29T08:43:24;99814.88;;;15.52;58.99
57192;BME280;43052;52.588;13.396;2022-09-29T08:46:00;99812.69;;;15.84;57.48
57192;BME280;43052;52.588;13.396;2022-09-29T08:48:28;99815.78;;;16.14;57.06
57192;BME280;43052;52.588;13.396;2022-09-29T08:51:01;99821.47;;;16.45;56.15
57192;BME280;43052;52.588;13.396;2022-09-29T08:53:31;99809.41;;;16.79;55.30
57192;BME280;43052;52.588;13.396;2022-09-29T08:56:02;99820.53;;;17.24;54.04
57192;BME280;43052;52.588;13.396;2022-09-29T08:58:27;99831.59;;;17.50;52.86
57192;BME280;43052;52.588;13.396;2022-09-29T09:01:18;99826.09;;;17.72;51.94
57192;BME280;43052;52.588;13.396;2022-09-29T09:06:35;99829.50;;;18.60;50.09
57192;BME280;43052;52.588;13.396;2022-09-29T09:09:14;99831.09;;;18.81;49.55
57192;BME280;43052;52.588;13.396;2022-09-29T09:15:15;99830.16;;;19.46;47.29
57192;BME280;43052;52.588;13.396;2022-09-29T09:20:54;99826.97;;;20.01;46.52
57192;BME280;43052;52.588;13.396;2022-09-29T09:23:31;99820.66;;;20.33;45.87
57192;BME280;43052;52.588;13.396;2022-09-29T09:26:01;99824.28;;;20.61;44.85
57192;BME280;43052;52.588;13.396;2022-09-29T09:28:57;99830.06;;;20.82;43.49
57192;BME280;43052;52.588;13.396;2022-09-29T09:31:30;99835.34;;;21.11;42.97
57192;BME280;43052;52.588;13.396;2022-09-29T09:34:09;99839.25;;;21.33;41.22
57192;BME280;43052;52.588;13.396;2022-09-29T09:36:44;99839.84;;;21.51;41.76
57192;BME280;43052;52.588;13.396;2022-09-29T09:39:25;99837.94;;;21.80;40.69
57192;BME280;43052;52.588;13.396;2022-09-29T09:41:55;99841.09;;;22.26;39.80
57192;BME280;43052;52.588;13.396;2022-09-29T09:44:26;99844.41;;;22.55;39.21
57192;BME280;43052;52.588;13.396;2022-09-29T09:49:37;99846.34;;;23.40;37.17
57192;BME280;43052;52.588;13.396;2022-09-29T09:52:15;99842.41;;;24.51;35.24
57192;BME280;43052;52.588;13.396;2022-09-29T09:54:46;99846.09;;;26.78;32.47
57192;BME280;43052;52.588;13.396;2022-09-29T10:00:15;99839.53;;;28.39;28.73
57192;BME280;43052;52.588;13.396;2022-09-29T10:02:47;99844.09;;;28.29;28.83
57192;BME280;43052;52.588;13.396;2022-09-29T10:05:16;99847.09;;;28.54;29.35
57192;BME280;43052;52.588;13.396;2022-09-29T10:07:42;99844.94;;;28.67;28.48
57192;BME280;43052;52.588;13.396;2022-09-29T10:10:23;99852.25;;;28.85;28.14
57192;BME280;43052;52.588;13.396;2022-09-29T10:12:55;99854.16;;;29.20;26.87
57192;BME280;43052;52.588;13.396;2022-09-29T10:15:24;99855.06;;;29.39;26.34
57192;BME280;43052;52.588;13.396;2022-09-29T10:18:03;99851.47;;;29.02;26.36
57192;BME280;43052;52.588;13.396;2022-09-29T10:20:36;99864.00;;;29.39;26.31
57192;BME280;43052;52.588;13.396;2022-09-29T10:23:28;99860.66;;;31.30;24.28
57192;BME280;43052;52.588;13.396;2022-09-29T10:26:00;99857.56;;;33.13;21.28
57192;BME280;43052;52.588;13.396;2022-09-29T10:28:29;99860.16;;;32.59;20.60
57192;BME280;43052;52.588;13.396;2022-09-29T10:31:00;99868.47;;;30.56;23.38
57192;BME280;43052;52.588;13.396;2022-09-29T10:33:26;99866.97;;;30.09;24.90
57192;BME280;43052;52.588;13.396;2022-09-29T10:36:05;99854.19;;;28.55;25.61
57192;BME280;43052;52.588;13.396;2022-09-29T10:38:31;99867.34;;;26.39;27.92
57192;BME280;43052;52.588;13.396;2022-09-29T10:40:59;99864.19;;;24.92;30.21
57192;BME280;43052;52.588;13.396;2022-09-29T10:43:37;99865.50;;;24.41;30.50
57192;BME280;43052;52.588;13.396;2022-09-29T10:46:04;99875.03;;;24.09;31.85
57192;BME280;43052;52.588;13.396;2022-09-29T10:48:29;99870.09;;;23.92;32.37
57192;BME280;43052;52.588;13.396;2022-09-29T10:50:58;99873.34;;;23.84;32.87
57192;BME280;43052;52.588;13.396;2022-09-29T10:55:58;99883.16;;;22.72;34.13
57192;BME280;43052;52.588;13.396;2022-09-29T10:58:31;99874.41;;;22.31;34.64
57192;BME280;43052;52.588;13.396;2022-09-29T11:01:27;99876.81;;;21.96;34.72
57192;BME280;43052;52.588;13.396;2022-09-29T11:03:57;99890.66;;;21.60;34.76
57192;BME280;43052;52.588;13.396;2022-09-29T11:06:29;99877.75;;;21.40;35.35
57192;BME280;43052;52.588;13.396;2022-09-29T11:09:03;99886.28;;;21.18;36.38
57192;BME280;43052;52.588;13.396;2022-09-29T11:11:39;99881.03;;;20.89;36.67
57192;BME280;43052;52.588;13.396;2022-09-29T11:17:01;99884.47;;;20.31;38.29
57192;BME280;43052;52.588;13.396;2022-09-29T11:19:30;99895.53;;;20.24;38.38
57192;BME280;43052;52.588;13.396;2022-09-29T11:25:06;99893.59;;;20.56;37.76
57192;BME280;43052;52.588;13.396;2022-09-29T11:27:57;99891.78;;;20.57;37.26
57192;BME280;43052;52.588;13.396;2022-09-29T11:30:41;99898.59;;;20.32;37.05
57192;BME280;43052;52.588;13.396;2022-09-29T11:33:45;99904.72;;;20.18;37.16
57192;BME280;43052;52.588;13.396;2022-09-29T11:36:27;99905.16;;;20.10;37.68
57192;BME280;43052;52.588;13.396;2022-09-29T11:39:21;99906.16;;;19.93;37.81
57192;BME280;43052;52.588;13.396;2022-09-29T11:42:05;99904.72;;;19.87;37.85
57192;BME280;43052;52.588;13.396;2022-09-29T11:44:59;99905.50;;;19.90;38.07
57192;BME280;43052;52.588;13.396;2022-09-29T11:52:57;99905.00;;;19.51;38.66
57192;BME280;43052;52.588;13.396;2022-09-29T12:01:21;99913.44;;;18.93;38.18
57192;BME280;43052;52.588;13.396;2022-09-29T12:06:52;99910.06;;;18.56;37.80
57192;BME280;43052;52.588;13.396;2022-09-29T12:12:39;99911.34;;;18.31;38.74
57192;BME280;43052;52.588;13.396;2022-09-29T12:15:17;99908.59;;;18.15;38.74
57192;BME280;43052;52.588;13.396;2022-09-29T12:17:48;99916.00;;;18.26;39.24
57192;BME280;43052;52.588;13.396;2022-09-29T12:20:23;99912.09;;;18.33;39.19
57192;BME280;43052;52.588;13.396;2022-09-29T12:22:51;99918.34;;;18.32;39.43
57192;BME280;43052;52.588;13.396;2022-09-29T12:25:22;99915.59;;;18.34;39.47
57192;BME280;43052;52.588;13.396;2022-09-29T12:27:52;99921.84;;;18.33;39.51
57192;BME280;43052;52.588;13.396;2022-09-29T12:30:24;99913.91;;;18.33;39.65
57192;BME280;43052;52.588;13.396;2022-09-29T12:33:14;99912.25;;;18.48;39.72
57192;BME280;43052;52.588;13.396;2022-09-29T12:36:07;99911.59;;;18.60;40.00
57192;BME280;43052;52.588;13.396;2022-09-29T12:38:58;99908.28;;;18.39;40.10
57192;BME280;43052;52.588;13.396;2022-09-29T12:41:29;99910.88;;;18.23;40.51
57192;BME280;43052;52.588;13.396;2022-09-29T12:44:08;99907.81;;;17.96;41.32
57192;BME280;43052;52.588;13.396;2022-09-29T12:49:54;99906.00;;;17.60;42.02
57192;BME280;43052;52.588;13.396;2022-09-29T12:52:25;99922.75;;;17.41;41.25
57192;BME280;43052;52.588;13.396;2022-09-29T12:54:57;99912.19;;;17.22;41.73
57192;BME280;43052;52.588;13.396;2022-09-29T12:57:34;99915.13;;;16.97;41.44
57192;BME280;43052;52.588;13.396;2022-09-29T13:14:14;99925.28;;;17.25;42.29
57192;BME280;43052;52.588;13.396;2022-09-29T13:16:58;99923.03;;;17.35;41.87
57192;BME280;43052;52.588;13.396;2022-09-29T13:25:40;99927.75;;;17.28;42.34
57192;BME280;43052;52.588;13.396;2022-09-29T13:28:25;99922.34;;;17.31;42.91
57192;BME280;43052;52.588;13.396;2022-09-29T13:30:54;99930.25;;;17.31;42.14
57192;BME280;43052;52.588;13.396;2022-09-29T13:33:24;99929.00;;;17.40;42.28
57192;BME280;43052;52.588;13.396;2022-09-29T13:35:50;99932.16;;;17.47;42.33
57192;BME280;43052;52.588;13.396;2022-09-29T13:38:20;99926.84;;;17.48;42.19
57192;BME280;43052;52.588;13.396;2022-09-29T13:44:03;99934.84;;;17.28;41.26
57192;BME280;43052;52.588;13.396;2022-09-29T13:54:36;99944.91;;;16.38;43.16
57192;BME280;43052;52.588;13.396;2022-09-29T13:59:30;99948.88;;;16.28;43.50
57192;BME280;43052;52.588;13.396;2022-09-29T14:01:56;99945.34;;;16.27;43.57
57192;BME280;43052;52.588;13.396;2022-09-29T14:04:33;99954.00;;;16.31;44.11
57192;BME280;43052;52.588;13.396;2022-09-29T14:07:00;99959.06;;;16.36;44.01
57192;BME280;43052;52.588;13.396;2022-09-29T14:09:30;99956.97;;;16.44;43.88
57192;BME280;43052;52.588;13.396;2022-09-29T14:12:02;99961.94;;;16.52;44.05
57192;BME280;43052;52.588;13.396;2022-09-29T14:14:35;99967.13;;;16.53;43.65
57192;BME280;43052;52.588;13.396;2022-09-29T14:17:08;99965.44;;;16.52;43.21
57192;BME280;43052;52.588;13.396;2022-09-29T14:19:44;99968.84;;;16.54;42.81
57192;BME280;43052;52.588;13.396;2022-09-29T14:24:51;99970.56;;;16.55;42.89
57192;BME280;43052;52.588;13.396;2022-09-29T14:27:34;99965.69;;;16.46;42.71
57192;BME280;43052;52.588;13.396;2022-09-29T14:32:42;99979.41;;;16.34;42.82
57192;BME280;43052;52.588;13.396;2022-09-29T14:38:19;99986.34;;;16.36;42.81
57192;BME280;43052;52.588;13.396;2022-09-29T14:41:00;99979.59;;;16.29;43.03
57192;BME280;43052;52.588;13.396;2022-09-29T14:43:35;99977.16;;;16.24;43.08
57192;BME280;43052;52.588;13.396;2022-09-29T14:46:28;99988.69;;;16.22;43.09
57192;BME280;43052;52.588;13.396;2022-09-29T14:52:42;99989.91;;;16.13;43.28
57192;BME280;43052;52.588;13.396;2022-09-29T14:55:27;99983.91;;;16.09;43.35
57192;BME280;43052;52.588;13.396;2022-09-29T14:58:19;99993.63;;;15.87;43.55
57192;BME280;43052;52.588;13.396;2022-09-29T15:03:44;99991.22;;;15.57;43.80
57192;BME280;43052;52.588;13.396;2022-09-29T15:06:13;100001.41;;;15.66;43.81